sensor_id;sensor_type;location;lat;lon;timestamp;temperature;humidity
17726;DHT22;8983;53.156;17.960;2022-12-29T00:01:17;5.70;99.90
17726;DHT22;8983;53.156;17.960;2022-12-29T00:03:46;5.70;99.90
17726;DHT22;8983;53.156;17.960;2022-12-29T00:06:14;5.80;99.90
17726;DHT22;8983;53.156;17.960;2022-12-29T00:08:42;5.70;99.90
17726;DHT22;8983;53.156;17.960;2022-12-29T00:11:11;5.70;99.90
17726;DHT22;8983;53.156;17.960;2022-12-29T00:13:39;5.70;99.90
17726;DHT22;8983;53.156;17.960;2022-12-29T00:16:27;5.70;99.90
17726;DHT22;8983;53.156;17.960;2022-12-29T00:18:56;5.70;99.90
17726;DHT22;8983;53.156;17.960;2022-12-29T00:21:25;5.60;99.90
17726;DHT22;8983;53.156;17.960;2022-12-29T00:24:13;5.70;99.90
17726;DHT22;8983;53.156;17.960;2022-12-29T00:27:10;5.70;99.90
17726;DHT22;8983;53.156;17.960;2022-12-29T00:29:57;5.70;99.90
17726;DHT22;8983;53.156;17.960;2022-12-29T00:32:45;5.60;99.90
17726;DHT22;8983;53.156;17.960;2022-12-29T00:35:42;5.70;99.90
17726;DHT22;8983;53.156;17.960;2022-12-29T00:38:12;5.80;99.90
17726;DHT22;8983;53.156;17.960;2022-12-29T00:40:58;5.60;99.90
17726;DHT22;8983;53.156;17.960;2022-12-29T00:43:44;5.80;99.90
17726;DHT22;8983;53.156;17.960;2022-12-29T00:46:29;5.70;99.90
17726;DHT22;8983;53.156;17.960;2022-12-29T00:48:59;5.60;99.90
17726;DHT22;8983;53.156;17.960;2022-12-29T00:51:45;5.70;99.90
17726;DHT22;8983;53.156;17.960;2022-12-29T00:54:13;5.70;99.90
17726;DHT22;8983;53.156;17.960;2022-12-29T00:56:46;5.70;99.90
17726;DHT22;8983;53.156;17.960;2022-12-29T00:59:14;5.70;99.90
17726;DHT22;8983;53.156;17.960;2022-12-29T01:01:44;5.70;99.90
17726;DHT22;8983;53.156;17.960;2022-12-29T01:04:14;5.70;99.90
17726;DHT22;8983;53.156;17.960;2022-12-29T01:06:44;5.70;99.90
17726;DHT22;8983;53.156;17.960;2022-12-29T01:09:12;5.70;99.90
17726;DHT22;8983;53.156;17.960;2022-12-29T01:11:57;5.70;99.90
17726;DHT22;8983;53.156;17.960;2022-12-29T01:14:26;5.70;99.90
17726;DHT22;8983;53.156;17.960;2022-12-29T01:16:55;5.70;99.90
17726;DHT22;8983;53.156;17.960;2022-12-29T01:19:24;5.70;99.90
17726;DHT22;8983;53.156;17.960;2022-12-29T01:21:53;5.70;99.90
17726;DHT22;8983;53.156;17.960;2022-12-29T01:24:21;5.70;99.90
17726;DHT22;8983;53.156;17.960;2022-12-29T01:26:49;5.80;99.90
17726;DHT22;8983;53.156;17.960;2022-12-29T01:29:17;5.70;99.90
17726;DHT22;8983;53.156;17.960;2022-12-29T01:31:45;5.70;99.90
17726;DHT22;8983;53.156;17.960;2022-12-29T01:34:14;5.60;99.90
17726;DHT22;8983;53.156;17.960;2022-12-29T01:36:43;5.60;99.90
17726;DHT22;8983;53.156;17.960;2022-12-29T01:39:11;5.60;99.90
17726;DHT22;8983;53.156;17.960;2022-12-29T01:41:41;5.60;99.90
17726;DHT22;8983;53.156;17.960;2022-12-29T01:47:29;5.60;99.90
17726;DHT22;8983;53.156;17.960;2022-12-29T01:50:01;5.60;99.90
17726;DHT22;8983;53.156;17.960;2022-12-29T01:52:33;5.60;99.90
17726;DHT22;8983;53.156;17.960;2022-12-29T01:55:03;5.60;99.90
17726;DHT22;8983;53.156;17.960;2022-12-29T01:57:36;5.60;99.90
17726;DHT22;8983;53.156;17.960;2022-12-29T02:00:07;5.60;99.90
17726;DHT22;8983;53.156;17.960;2022-12-29T02:02:37;5.60;99.90
17726;DHT22;8983;53.156;17.960;2022-12-29T02:05:10;5.60;99.90
17726;DHT22;8983;53.156;17.960;2022-12-29T02:07:41;5.60;99.90
17726;DHT22;8983;53.156;17.960;2022-12-29T02:10:09;5.60;99.90
17726;DHT22;8983;53.156;17.960;2022-12-29T02:12:37;5.60;99.90
17726;DHT22;8983;53.156;17.960;2022-12-29T02:15:06;5.60;99.90
17726;DHT22;8983;53.156;17.960;2022-12-29T02:17:45;5.60;99.90
17726;DHT22;8983;53.156;17.960;2022-12-29T02:20:57;5.60;99.90
17726;DHT22;8983;53.156;17.960;2022-12-29T02:23:41;5.70;99.90
17726;DHT22;8983;53.156;17.960;2022-12-29T02:26:34;5.70;99.90
17726;DHT22;8983;53.156;17.960;2022-12-29T02:32:20;5.70;99.90
17726;DHT22;8983;53.156;17.960;2022-12-29T02:34:59;5.70;99.90
17726;DHT22;8983;53.156;17.960;2022-12-29T02:37:33;5.70;99.90
17726;DHT22;8983;53.156;17.960;2022-12-29T02:40:13;5.70;99.90
17726;DHT22;8983;53.156;17.960;2022-12-29T02:42:47;5.70;99.90
17726;DHT22;8983;53.156;17.960;2022-12-29T02:45:21;5.80;99.90
17726;DHT22;8983;53.156;17.960;2022-12-29T02:47:57;5.80;99.90
17726;DHT22;8983;53.156;17.960;2022-12-29T02:50:34;5.80;99.90
17726;DHT22;8983;53.156;17.960;2022-12-29T02:53:06;5.80;99.90
17726;DHT22;8983;53.156;17.960;2022-12-29T02:55:35;5.80;99.90
17726;DHT22;8983;53.156;17.960;2022-12-29T02:58:16;5.80;99.90
17726;DHT22;8983;53.156;17.960;2022-12-29T03:01:01;5.80;99.90
17726;DHT22;8983;53.156;17.960;2022-12-29T03:03:47;5.90;99.90
17726;DHT22;8983;53.156;17.960;2022-12-29T03:06:30;5.90;99.90
17726;DHT22;8983;53.156;17.960;2022-12-29T03:09:06;5.90;99.90
17726;DHT22;8983;53.156;17.960;2022-12-29T03:11:50;5.90;99.90
17726;DHT22;8983;53.156;17.960;2022-12-29T03:14:49;5.90;99.90
17726;DHT22;8983;53.156;17.960;2022-12-29T03:17:43;6.00;99.90
17726;DHT22;8983;53.156;17.960;2022-12-29T03:20:20;6.00;99.90
17726;DHT22;8983;53.156;17.960;2022-12-29T03:22:51;6.00;99.90
17726;DHT22;8983;53.156;17.960;2022-12-29T03:25:24;6.00;99.90
17726;DHT22;8983;53.156;17.960;2022-12-29T03:27:56;6.00;99.90
17726;DHT22;8983;53.156;17.960;2022-12-29T03:30:25;6.00;99.90
17726;DHT22;8983;53.156;17.960;2022-12-29T03:32:57;6.00;99.90
17726;DHT22;8983;53.156;17.960;2022-12-29T03:35:29;6.10;99.90
17726;DHT22;8983;53.156;17.960;2022-12-29T03:38:02;6.10;99.90
17726;DHT22;8983;53.156;17.960;2022-12-29T03:40:34;6.10;99.90
17726;DHT22;8983;53.156;17.960;2022-12-29T03:43:03;6.10;99.90
17726;DHT22;8983;53.156;17.960;2022-12-29T03:45:32;6.10;99.90
17726;DHT22;8983;53.156;17.960;2022-12-29T03:48:00;6.10;99.90
17726;DHT22;8983;53.156;17.960;2022-12-29T03:50:29;6.10;99.90
17726;DHT22;8983;53.156;17.960;2022-12-29T03:52:57;6.00;99.90
17726;DHT22;8983;53.156;17.960;2022-12-29T03:55:25;6.00;99.90
17726;DHT22;8983;53.156;17.960;2022-12-29T03:57:53;6.00;99.90
17726;DHT22;8983;53.156;17.960;2022-12-29T04:00:21;6.00;99.90
17726;DHT22;8983;53.156;17.960;2022-12-29T04:02:49;6.00;99.90
17726;DHT22;8983;53.156;17.960;2022-12-29T04:05:17;6.00;99.90
17726;DHT22;8983;53.156;17.960;2022-12-29T04:07:47;6.10;99.90
17726;DHT22;8983;53.156;17.960;2022-12-29T04:10:15;6.10;99.90
17726;DHT22;8983;53.156;17.960;2022-12-29T04:12:44;6.10;99.90
17726;DHT22;8983;53.156;17.960;2022-12-29T04:15:13;6.10;99.90
17726;DHT22;8983;53.156;17.960;2022-12-29T04:17:41;6.10;99.90
17726;DHT22;8983;53.156;17.960;2022-12-29T04:20:09;6.10;99.90
17726;DHT22;8983;53.156;17.960;2022-12-29T04:23:01;6.10;99.90
17726;DHT22;8983;53.156;17.960;2022-12-29T04:25:31;6.10;99.90
17726;DHT22;8983;53.156;17.960;2022-12-29T04:28:00;6.10;99.90
17726;DHT22;8983;53.156;17.960;2022-12-29T04:30:28;6.10;99.90
17726;DHT22;8983;53.156;17.960;2022-12-29T04:32:56;6.00;99.90
17726;DHT22;8983;53.156;17.960;2022-12-29T04:35:24;6.20;99.90
17726;DHT22;8983;53.156;17.960;2022-12-29T04:37:52;6.20;99.90
17726;DHT22;8983;53.156;17.960;2022-12-29T04:40:21;6.20;99.90
17726;DHT22;8983;53.156;17.960;2022-12-29T04:42:49;6.20;99.90
17726;DHT22;8983;53.156;17.960;2022-12-29T04:45:17;6.20;99.90
17726;DHT22;8983;53.156;17.960;2022-12-29T04:47:45;6.20;99.90
17726;DHT22;8983;53.156;17.960;2022-12-29T04:50:13;6.20;99.90
17726;DHT22;8983;53.156;17.960;2022-12-29T04:52:41;6.20;99.90
17726;DHT22;8983;53.156;17.960;2022-12-29T04:55:09;6.20;99.90
17726;DHT22;8983;53.156;17.960;2022-12-29T04:57:38;6.20;99.90
17726;DHT22;8983;53.156;17.960;2022-12-29T05:00:07;6.20;99.90
17726;DHT22;8983;53.156;17.960;2022-12-29T05:02:36;6.20;99.90
17726;DHT22;8983;53.156;17.960;2022-12-29T05:05:06;6.20;99.90
17726;DHT22;8983;53.156;17.960;2022-12-29T05:07:34;6.30;99.90
17726;DHT22;8983;53.156;17.960;2022-12-29T05:10:03;6.30;99.90
17726;DHT22;8983;53.156;17.960;2022-12-29T05:12:34;6.30;99.90
17726;DHT22;8983;53.156;17.960;2022-12-29T05:15:05;6.30;99.90
17726;DHT22;8983;53.156;17.960;2022-12-29T05:17:33;6.30;99.90
17726;DHT22;8983;53.156;17.960;2022-12-29T05:20:02;6.30;99.90
17726;DHT22;8983;53.156;17.960;2022-12-29T05:22:30;6.30;99.90
17726;DHT22;8983;53.156;17.960;2022-12-29T05:24:58;6.30;99.90
17726;DHT22;8983;53.156;17.960;2022-12-29T05:27:26;6.30;99.90
17726;DHT22;8983;53.156;17.960;2022-12-29T05:29:54;6.30;99.90
17726;DHT22;8983;53.156;17.960;2022-12-29T05:32:24;6.40;99.90
17726;DHT22;8983;53.156;17.960;2022-12-29T05:34:52;6.40;99.90
17726;DHT22;8983;53.156;17.960;2022-12-29T05:37:19;6.40;99.90
17726;DHT22;8983;53.156;17.960;2022-12-29T05:39:47;6.40;99.90
17726;DHT22;8983;53.156;17.960;2022-12-29T05:42:15;6.40;99.90
17726;DHT22;8983;53.156;17.960;2022-12-29T05:44:44;6.40;99.90
17726;DHT22;8983;53.156;17.960;2022-12-29T05:47:12;6.40;99.90
17726;DHT22;8983;53.156;17.960;2022-12-29T05:49:41;6.50;99.90
17726;DHT22;8983;53.156;17.960;2022-12-29T05:52:09;6.50;99.90
17726;DHT22;8983;53.156;17.960;2022-12-29T05:54:37;6.50;99.90
17726;DHT22;8983;53.156;17.960;2022-12-29T05:57:05;6.50;99.90
17726;DHT22;8983;53.156;17.960;2022-12-29T05:59:33;6.50;99.90
17726;DHT22;8983;53.156;17.960;2022-12-29T06:02:01;6.50;99.90
17726;DHT22;8983;53.156;17.960;2022-12-29T06:04:29;6.50;99.90
17726;DHT22;8983;53.156;17.960;2022-12-29T06:07:00;6.50;99.90
17726;DHT22;8983;53.156;17.960;2022-12-29T06:09:28;6.50;99.90
17726;DHT22;8983;53.156;17.960;2022-12-29T06:11:55;6.50;99.90
17726;DHT22;8983;53.156;17.960;2022-12-29T06:14:23;6.50;99.90
17726;DHT22;8983;53.156;17.960;2022-12-29T06:16:51;6.60;99.90
17726;DHT22;8983;53.156;17.960;2022-12-29T06:19:19;6.60;99.90
17726;DHT22;8983;53.156;17.960;2022-12-29T06:21:48;6.60;99.90
17726;DHT22;8983;53.156;17.960;2022-12-29T06:24:17;6.60;99.90
17726;DHT22;8983;53.156;17.960;2022-12-29T06:26:45;6.60;99.90
17726;DHT22;8983;53.156;17.960;2022-12-29T06:29:13;6.60;99.90
17726;DHT22;8983;53.156;17.960;2022-12-29T06:31:43;6.60;99.90
17726;DHT22;8983;53.156;17.960;2022-12-29T06:34:12;6.60;99.90
17726;DHT22;8983;53.156;17.960;2022-12-29T06:36:40;6.60;99.90
17726;DHT22;8983;53.156;17.960;2022-12-29T06:39:09;6.70;99.90
17726;DHT22;8983;53.156;17.960;2022-12-29T06:41:39;6.70;99.90
17726;DHT22;8983;53.156;17.960;2022-12-29T06:44:07;6.70;99.90
17726;DHT22;8983;53.156;17.960;2022-12-29T06:46:35;6.70;99.90
17726;DHT22;8983;53.156;17.960;2022-12-29T06:49:03;6.70;99.90
17726;DHT22;8983;53.156;17.960;2022-12-29T06:51:31;6.70;99.90
17726;DHT22;8983;53.156;17.960;2022-12-29T06:53:59;6.70;99.90
17726;DHT22;8983;53.156;17.960;2022-12-29T06:56:27;6.70;99.90
17726;DHT22;8983;53.156;17.960;2022-12-29T06:58:56;6.80;99.90
17726;DHT22;8983;53.156;17.960;2022-12-29T07:01:26;6.80;99.90
17726;DHT22;8983;53.156;17.960;2022-12-29T07:03:55;6.80;99.90
17726;DHT22;8983;53.156;17.960;2022-12-29T07:06:23;6.80;99.90
17726;DHT22;8983;53.156;17.960;2022-12-29T07:08:51;6.80;99.90
17726;DHT22;8983;53.156;17.960;2022-12-29T07:11:21;6.90;99.90
17726;DHT22;8983;53.156;17.960;2022-12-29T07:13:50;6.80;99.90
17726;DHT22;8983;53.156;17.960;2022-12-29T07:16:19;6.80;99.90
17726;DHT22;8983;53.156;17.960;2022-12-29T07:18:47;6.80;99.90
17726;DHT22;8983;53.156;17.960;2022-12-29T07:21:15;6.80;99.90
17726;DHT22;8983;53.156;17.960;2022-12-29T07:23:43;6.80;99.90
17726;DHT22;8983;53.156;17.960;2022-12-29T07:26:14;6.90;99.90
17726;DHT22;8983;53.156;17.960;2022-12-29T07:28:44;6.90;99.90
17726;DHT22;8983;53.156;17.960;2022-12-29T07:31:14;6.90;99.90
17726;DHT22;8983;53.156;17.960;2022-12-29T07:33:44;6.90;99.90
17726;DHT22;8983;53.156;17.960;2022-12-29T07:36:12;6.90;99.90
17726;DHT22;8983;53.156;17.960;2022-12-29T07:38:41;6.90;99.90
17726;DHT22;8983;53.156;17.960;2022-12-29T07:41:09;6.90;99.90
17726;DHT22;8983;53.156;17.960;2022-12-29T07:43:38;6.90;99.90
17726;DHT22;8983;53.156;17.960;2022-12-29T07:46:06;6.90;99.90
17726;DHT22;8983;53.156;17.960;2022-12-29T07:48:56;6.90;99.90
17726;DHT22;8983;53.156;17.960;2022-12-29T07:51:24;6.90;99.90
17726;DHT22;8983;53.156;17.960;2022-12-29T07:53:52;6.80;99.90
17726;DHT22;8983;53.156;17.960;2022-12-29T07:56:20;6.80;99.90
17726;DHT22;8983;53.156;17.960;2022-12-29T07:58:49;7.00;99.90
17726;DHT22;8983;53.156;17.960;2022-12-29T08:01:17;6.80;99.90
17726;DHT22;8983;53.156;17.960;2022-12-29T08:03:45;7.00;99.90
17726;DHT22;8983;53.156;17.960;2022-12-29T08:06:21;6.90;99.90
17726;DHT22;8983;53.156;17.960;2022-12-29T08:08:49;7.00;99.90
17726;DHT22;8983;53.156;17.960;2022-12-29T08:11:17;7.00;99.90
17726;DHT22;8983;53.156;17.960;2022-12-29T08:13:45;7.00;99.90
17726;DHT22;8983;53.156;17.960;2022-12-29T08:16:13;7.10;99.90
17726;DHT22;8983;53.156;17.960;2022-12-29T08:18:41;7.10;99.90
17726;DHT22;8983;53.156;17.960;2022-12-29T08:21:09;7.20;99.90
17726;DHT22;8983;53.156;17.960;2022-12-29T08:23:39;7.20;99.90
17726;DHT22;8983;53.156;17.960;2022-12-29T08:26:07;7.20;99.90
17726;DHT22;8983;53.156;17.960;2022-12-29T08:28:35;7.20;99.90
17726;DHT22;8983;53.156;17.960;2022-12-29T08:31:03;7.30;99.90
17726;DHT22;8983;53.156;17.960;2022-12-29T08:33:32;7.30;99.90
17726;DHT22;8983;53.156;17.960;2022-12-29T08:36:00;7.30;99.90
17726;DHT22;8983;53.156;17.960;2022-12-29T08:38:29;7.30;99.90
17726;DHT22;8983;53.156;17.960;2022-12-29T08:40:59;7.30;99.90
17726;DHT22;8983;53.156;17.960;2022-12-29T08:43:27;7.40;99.90
17726;DHT22;8983;53.156;17.960;2022-12-29T08:45:57;7.40;99.90
17726;DHT22;8983;53.156;17.960;2022-12-29T08:48:25;7.40;99.90
17726;DHT22;8983;53.156;17.960;2022-12-29T08:50:54;7.50;99.90
17726;DHT22;8983;53.156;17.960;2022-12-29T08:53:22;7.50;99.90
17726;DHT22;8983;53.156;17.960;2022-12-29T08:55:56;7.50;99.90
17726;DHT22;8983;53.156;17.960;2022-12-29T08:58:32;7.60;99.90
17726;DHT22;8983;53.156;17.960;2022-12-29T09:01:00;7.60;99.90
17726;DHT22;8983;53.156;17.960;2022-12-29T09:03:28;7.60;99.90
17726;DHT22;8983;53.156;17.960;2022-12-29T09:06:17;7.60;99.90
17726;DHT22;8983;53.156;17.960;2022-12-29T09:08:45;7.60;99.90
17726;DHT22;8983;53.156;17.960;2022-12-29T09:11:16;7.60;99.90
17726;DHT22;8983;53.156;17.960;2022-12-29T09:13:46;7.70;99.90
17726;DHT22;8983;53.156;17.960;2022-12-29T09:16:15;7.70;99.90
17726;DHT22;8983;53.156;17.960;2022-12-29T09:18:44;7.70;99.90
17726;DHT22;8983;53.156;17.960;2022-12-29T09:21:12;7.70;99.90
17726;DHT22;8983;53.156;17.960;2022-12-29T09:23:41;7.70;99.90
17726;DHT22;8983;53.156;17.960;2022-12-29T09:26:09;7.70;99.90
17726;DHT22;8983;53.156;17.960;2022-12-29T09:28:37;7.70;99.90
17726;DHT22;8983;53.156;17.960;2022-12-29T09:31:06;7.70;99.90
17726;DHT22;8983;53.156;17.960;2022-12-29T09:33:34;7.80;99.90
17726;DHT22;8983;53.156;17.960;2022-12-29T09:36:03;7.80;99.90
17726;DHT22;8983;53.156;17.960;2022-12-29T09:38:31;7.80;99.90
17726;DHT22;8983;53.156;17.960;2022-12-29T09:41:04;7.80;99.90
17726;DHT22;8983;53.156;17.960;2022-12-29T09:43:48;8.00;99.90
17726;DHT22;8983;53.156;17.960;2022-12-29T09:46:24;7.90;99.90
17726;DHT22;8983;53.156;17.960;2022-12-29T09:49:08;7.80;99.90
17726;DHT22;8983;53.156;17.960;2022-12-29T09:51:43;7.90;99.90
17726;DHT22;8983;53.156;17.960;2022-12-29T09:54:41;7.80;99.90
17726;DHT22;8983;53.156;17.960;2022-12-29T09:57:23;8.00;99.90
17726;DHT22;8983;53.156;17.960;2022-12-29T09:59:55;8.00;99.90
17726;DHT22;8983;53.156;17.960;2022-12-29T10:02:33;8.00;99.90
17726;DHT22;8983;53.156;17.960;2022-12-29T10:05:15;8.00;99.90
17726;DHT22;8983;53.156;17.960;2022-12-29T10:07:49;8.10;99.90
17726;DHT22;8983;53.156;17.960;2022-12-29T10:10:29;8.10;99.90
17726;DHT22;8983;53.156;17.960;2022-12-29T10:13:05;8.10;99.90
17726;DHT22;8983;53.156;17.960;2022-12-29T10:15:46;8.10;99.90
17726;DHT22;8983;53.156;17.960;2022-12-29T10:18:37;8.20;99.90
17726;DHT22;8983;53.156;17.960;2022-12-29T10:21:12;8.20;99.90
17726;DHT22;8983;53.156;17.960;2022-12-29T10:23:44;8.30;99.90
17726;DHT22;8983;53.156;17.960;2022-12-29T10:26:15;8.30;99.90
17726;DHT22;8983;53.156;17.960;2022-12-29T10:28:46;8.30;99.90
17726;DHT22;8983;53.156;17.960;2022-12-29T10:31:18;8.30;99.90
17726;DHT22;8983;53.156;17.960;2022-12-29T10:33:53;8.30;99.90
17726;DHT22;8983;53.156;17.960;2022-12-29T10:36:28;8.30;99.90
17726;DHT22;8983;53.156;17.960;2022-12-29T10:39:05;8.30;99.90
17726;DHT22;8983;53.156;17.960;2022-12-29T10:41:39;8.30;99.90
17726;DHT22;8983;53.156;17.960;2022-12-29T10:44:13;8.30;99.90
17726;DHT22;8983;53.156;17.960;2022-12-29T10:46:43;8.40;99.90
17726;DHT22;8983;53.156;17.960;2022-12-29T10:49:17;8.30;99.90
17726;DHT22;8983;53.156;17.960;2022-12-29T10:51:48;8.30;99.90
17726;DHT22;8983;53.156;17.960;2022-12-29T10:54:23;8.30;99.90
17726;DHT22;8983;53.156;17.960;2022-12-29T10:56:54;8.40;99.90
17726;DHT22;8983;53.156;17.960;2022-12-29T10:59:25;8.40;99.90
17726;DHT22;8983;53.156;17.960;2022-12-29T11:02:00;8.40;99.90
17726;DHT22;8983;53.156;17.960;2022-12-29T11:04:43;8.30;99.90
17726;DHT22;8983;53.156;17.960;2022-12-29T11:07:17;8.40;99.90
17726;DHT22;8983;53.156;17.960;2022-12-29T11:09:53;8.50;99.90
17726;DHT22;8983;53.156;17.960;2022-12-29T11:12:23;8.40;99.90
17726;DHT22;8983;53.156;17.960;2022-12-29T11:15:02;8.40;99.90
17726;DHT22;8983;53.156;17.960;2022-12-29T11:17:43;8.40;99.90
17726;DHT22;8983;53.156;17.960;2022-12-29T11:20:30;8.50;99.90
17726;DHT22;8983;53.156;17.960;2022-12-29T11:23:01;8.50;99.90
17726;DHT22;8983;53.156;17.960;2022-12-29T11:25:30;8.50;99.90
17726;DHT22;8983;53.156;17.960;2022-12-29T11:28:01;8.50;99.90
17726;DHT22;8983;53.156;17.960;2022-12-29T11:30:32;8.60;99.90
17726;DHT22;8983;53.156;17.960;2022-12-29T11:33:03;8.60;99.90
17726;DHT22;8983;53.156;17.960;2022-12-29T11:35:35;8.60;99.90
17726;DHT22;8983;53.156;17.960;2022-12-29T11:38:04;8.70;99.90
17726;DHT22;8983;53.156;17.960;2022-12-29T11:40:38;8.90;99.90
17726;DHT22;8983;53.156;17.960;2022-12-29T11:43:11;9.10;99.90
17726;DHT22;8983;53.156;17.960;2022-12-29T11:45:46;9.30;99.90
17726;DHT22;8983;53.156;17.960;2022-12-29T11:50:51;10.00;99.90
17726;DHT22;8983;53.156;17.960;2022-12-29T11:53:22;10.30;99.90
17726;DHT22;8983;53.156;17.960;2022-12-29T11:55:53;10.50;99.90
17726;DHT22;8983;53.156;17.960;2022-12-29T11:58:29;10.70;99.90
17726;DHT22;8983;53.156;17.960;2022-12-29T12:01:02;10.90;99.90
17726;DHT22;8983;53.156;17.960;2022-12-29T12:03:34;11.10;99.90
17726;DHT22;8983;53.156;17.960;2022-12-29T12:06:07;11.20;99.90
17726;DHT22;8983;53.156;17.960;2022-12-29T12:08:41;11.50;99.90
17726;DHT22;8983;53.156;17.960;2022-12-29T12:11:14;11.50;99.90
17726;DHT22;8983;53.156;17.960;2022-12-29T12:13:47;11.70;99.90
17726;DHT22;8983;53.156;17.960;2022-12-29T12:16:26;11.70;99.90
17726;DHT22;8983;53.156;17.960;2022-12-29T12:18:57;11.80;99.90
17726;DHT22;8983;53.156;17.960;2022-12-29T12:21:34;11.90;99.90
17726;DHT22;8983;53.156;17.960;2022-12-29T12:24:32;11.90;99.90
17726;DHT22;8983;53.156;17.960;2022-12-29T12:27:11;12.00;99.90
17726;DHT22;8983;53.156;17.960;2022-12-29T12:29:45;12.00;99.90
17726;DHT22;8983;53.156;17.960;2022-12-29T12:32:17;12.00;99.90
17726;DHT22;8983;53.156;17.960;2022-12-29T12:34:48;12.00;99.90
17726;DHT22;8983;53.156;17.960;2022-12-29T12:37:40;12.10;99.90
17726;DHT22;8983;53.156;17.960;2022-12-29T12:40:34;12.20;99.90
17726;DHT22;8983;53.156;17.960;2022-12-29T12:43:20;12.20;99.90
17726;DHT22;8983;53.156;17.960;2022-12-29T12:46:00;12.20;99.90
17726;DHT22;8983;53.156;17.960;2022-12-29T12:48:49;11.90;99.90
17726;DHT22;8983;53.156;17.960;2022-12-29T12:51:28;11.90;99.90
17726;DHT22;8983;53.156;17.960;2022-12-29T12:54:11;11.70;99.90
17726;DHT22;8983;53.156;17.960;2022-12-29T12:56:58;11.60;99.90
17726;DHT22;8983;53.156;17.960;2022-12-29T12:59:37;11.60;99.90
17726;DHT22;8983;53.156;17.960;2022-12-29T13:02:21;11.70;99.90
17726;DHT22;8983;53.156;17.960;2022-12-29T13:05:29;11.80;99.90
17726;DHT22;8983;53.156;17.960;2022-12-29T13:08:21;11.90;99.90
17726;DHT22;8983;53.156;17.960;2022-12-29T13:10:55;12.00;99.90
17726;DHT22;8983;53.156;17.960;2022-12-29T13:13:51;11.90;99.90
17726;DHT22;8983;53.156;17.960;2022-12-29T13:16:29;11.70;99.90
17726;DHT22;8983;53.156;17.960;2022-12-29T13:19:06;11.50;99.90
17726;DHT22;8983;53.156;17.960;2022-12-29T13:21:47;11.20;99.90
17726;DHT22;8983;53.156;17.960;2022-12-29T13:24:38;11.00;99.90
17726;DHT22;8983;53.156;17.960;2022-12-29T13:27:15;10.90;99.90
17726;DHT22;8983;53.156;17.960;2022-12-29T13:29:53;10.70;99.90
17726;DHT22;8983;53.156;17.960;2022-12-29T13:32:35;10.60;99.90
17726;DHT22;8983;53.156;17.960;2022-12-29T13:35:22;10.50;99.90
17726;DHT22;8983;53.156;17.960;2022-12-29T13:37:55;10.40;99.90
17726;DHT22;8983;53.156;17.960;2022-12-29T13:40:25;10.30;99.90
17726;DHT22;8983;53.156;17.960;2022-12-29T13:42:57;10.20;99.90
17726;DHT22;8983;53.156;17.960;2022-12-29T13:45:26;10.10;99.90
17726;DHT22;8983;53.156;17.960;2022-12-29T13:47:59;10.10;99.90
17726;DHT22;8983;53.156;17.960;2022-12-29T13:50:34;10.00;99.90
17726;DHT22;8983;53.156;17.960;2022-12-29T13:53:08;10.00;99.90
17726;DHT22;8983;53.156;17.960;2022-12-29T13:55:44;9.90;99.90
17726;DHT22;8983;53.156;17.960;2022-12-29T13:58:23;9.80;99.90
17726;DHT22;8983;53.156;17.960;2022-12-29T14:00:55;9.80;99.90
17726;DHT22;8983;53.156;17.960;2022-12-29T14:03:43;9.70;99.90
17726;DHT22;8983;53.156;17.960;2022-12-29T14:06:16;9.70;99.90
17726;DHT22;8983;53.156;17.960;2022-12-29T14:08:46;9.60;99.90
17726;DHT22;8983;53.156;17.960;2022-12-29T14:11:17;9.60;99.90
17726;DHT22;8983;53.156;17.960;2022-12-29T14:13:47;9.50;99.90
17726;DHT22;8983;53.156;17.960;2022-12-29T14:16:27;9.50;99.90
17726;DHT22;8983;53.156;17.960;2022-12-29T14:19:04;9.40;99.90
17726;DHT22;8983;53.156;17.960;2022-12-29T14:21:33;9.40;99.90
17726;DHT22;8983;53.156;17.960;2022-12-29T14:24:27;9.40;99.90
17726;DHT22;8983;53.156;17.960;2022-12-29T14:26:55;9.30;99.90
17726;DHT22;8983;53.156;17.960;2022-12-29T14:29:45;9.30;99.90
17726;DHT22;8983;53.156;17.960;2022-12-29T14:32:36;9.20;99.90
17726;DHT22;8983;53.156;17.960;2022-12-29T14:35:36;9.20;99.90
17726;DHT22;8983;53.156;17.960;2022-12-29T14:38:14;9.10;99.90
17726;DHT22;8983;53.156;17.960;2022-12-29T14:40:43;9.00;99.90
17726;DHT22;8983;53.156;17.960;2022-12-29T14:43:13;9.00;99.90
17726;DHT22;8983;53.156;17.960;2022-12-29T14:45:52;9.00;99.90
17726;DHT22;8983;53.156;17.960;2022-12-29T14:48:30;9.00;99.90
17726;DHT22;8983;53.156;17.960;2022-12-29T14:50:59;9.00;99.90
17726;DHT22;8983;53.156;17.960;2022-12-29T14:53:45;9.00;99.90
17726;DHT22;8983;53.156;17.960;2022-12-29T14:56:15;9.00;99.90
17726;DHT22;8983;53.156;17.960;2022-12-29T14:58:47;9.00;99.90
17726;DHT22;8983;53.156;17.960;2022-12-29T15:01:24;8.90;99.90
17726;DHT22;8983;53.156;17.960;2022-12-29T15:03:57;8.90;99.90
17726;DHT22;8983;53.156;17.960;2022-12-29T15:06:28;8.90;99.90
17726;DHT22;8983;53.156;17.960;2022-12-29T15:09:01;9.00;99.90
17726;DHT22;8983;53.156;17.960;2022-12-29T15:11:44;9.00;99.90
17726;DHT22;8983;53.156;17.960;2022-12-29T15:14:36;9.00;99.90
17726;DHT22;8983;53.156;17.960;2022-12-29T15:17:21;9.00;99.90
17726;DHT22;8983;53.156;17.960;2022-12-29T15:19:51;9.00;99.90
17726;DHT22;8983;53.156;17.960;2022-12-29T15:22:19;9.00;99.90
17726;DHT22;8983;53.156;17.960;2022-12-29T15:24:50;9.00;99.90
17726;DHT22;8983;53.156;17.960;2022-12-29T15:27:20;9.10;99.90
17726;DHT22;8983;53.156;17.960;2022-12-29T15:29:56;9.10;99.90
17726;DHT22;8983;53.156;17.960;2022-12-29T15:32:27;9.20;99.90
17726;DHT22;8983;53.156;17.960;2022-12-29T15:34:57;9.10;99.90
17726;DHT22;8983;53.156;17.960;2022-12-29T15:37:28;9.20;99.90
17726;DHT22;8983;53.156;17.960;2022-12-29T15:40:00;9.20;99.90
17726;DHT22;8983;53.156;17.960;2022-12-29T15:42:47;9.20;99.90
17726;DHT22;8983;53.156;17.960;2022-12-29T15:45:17;9.20;99.90
17726;DHT22;8983;53.156;17.960;2022-12-29T15:47:47;9.20;99.90
17726;DHT22;8983;53.156;17.960;2022-12-29T15:50:22;9.20;99.90
17726;DHT22;8983;53.156;17.960;2022-12-29T15:52:51;9.20;99.90
17726;DHT22;8983;53.156;17.960;2022-12-29T15:55:30;9.20;99.90
17726;DHT22;8983;53.156;17.960;2022-12-29T15:58:02;9.20;99.90
17726;DHT22;8983;53.156;17.960;2022-12-29T16:00:32;9.20;99.90
17726;DHT22;8983;53.156;17.960;2022-12-29T16:03:03;9.30;99.90
17726;DHT22;8983;53.156;17.960;2022-12-29T16:05:34;9.30;99.90
17726;DHT22;8983;53.156;17.960;2022-12-29T16:08:03;9.30;99.90
17726;DHT22;8983;53.156;17.960;2022-12-29T16:10:46;9.30;99.90
17726;DHT22;8983;53.156;17.960;2022-12-29T16:13:20;9.20;99.90
17726;DHT22;8983;53.156;17.960;2022-12-29T16:15:57;9.20;99.90
17726;DHT22;8983;53.156;17.960;2022-12-29T16:18:29;9.30;99.90
17726;DHT22;8983;53.156;17.960;2022-12-29T16:20:57;9.30;99.90
17726;DHT22;8983;53.156;17.960;2022-12-29T16:23:27;9.30;99.90
17726;DHT22;8983;53.156;17.960;2022-12-29T16:25:57;9.40;99.90
17726;DHT22;8983;53.156;17.960;2022-12-29T16:28:30;9.40;99.90
17726;DHT22;8983;53.156;17.960;2022-12-29T16:31:04;9.50;99.90
17726;DHT22;8983;53.156;17.960;2022-12-29T16:33:38;9.40;99.90